sensor_id;sensor_type;location;lat;lon;timestamp;P1;durP1;ratioP1;P2;durP2;ratioP2
39314;SDS011;28703;44.412;11.918;2023-11-18T00:01:33;12.07;;;8.02;;
39314;SDS011;28703;44.412;11.918;2023-11-18T00:03:59;8.15;;;6.63;;
39314;SDS011;28703;44.412;11.918;2023-11-18T00:06:25;10.38;;;7.25;;
39314;SDS011;28703;44.412;11.918;2023-11-18T00:08:51;8.15;;;5.90;;
39314;SDS011;28703;44.412;11.918;2023-11-18T00:11:17;10.38;;;6.35;;
39314;SDS011;28703;44.412;11.918;2023-11-18T00:13:44;9.15;;;6.88;;
39314;SDS011;28703;44.412;11.918;2023-11-18T00:16:09;11.48;;;6.65;;
39314;SDS011;28703;44.412;11.918;2023-11-18T00:18:38;12.43;;;6.93;;
39314;SDS011;28703;44.412;11.918;2023-11-18T00:21:05;7.30;;;6.25;;
39314;SDS011;28703;44.412;11.918;2023-11-18T00:23:31;10.80;;;7.03;;
39314;SDS011;28703;44.412;11.918;2023-11-18T00:25:57;12.98;;;6.50;;
39314;SDS011;28703;44.412;11.918;2023-11-18T00:28:23;10.93;;;6.85;;
39314;SDS011;28703;44.412;11.918;2023-11-18T00:30:48;8.07;;;6.88;;
39314;SDS011;28703;44.412;11.918;2023-11-18T00:33:15;9.43;;;7.15;;
39314;SDS011;28703;44.412;11.918;2023-11-18T00:35:40;11.60;;;7.45;;
39314;SDS011;28703;44.412;11.918;2023-11-18T00:38:06;9.63;;;6.85;;
39314;SDS011;28703;44.412;11.918;2023-11-18T00:40:32;9.40;;;6.78;;
39314;SDS011;28703;44.412;11.918;2023-11-18T00:42:58;14.02;;;7.15;;
39314;SDS011;28703;44.412;11.918;2023-11-18T00:45:23;12.27;;;6.60;;
39314;SDS011;28703;44.412;11.918;2023-11-18T00:47:49;11.32;;;8.15;;
39314;SDS011;28703;44.412;11.918;2023-11-18T00:50:15;8.98;;;6.65;;
39314;SDS011;28703;44.412;11.918;2023-11-18T00:52:43;8.90;;;6.85;;
39314;SDS011;28703;44.412;11.918;2023-11-18T00:55:09;10.23;;;6.47;;
39314;SDS011;28703;44.412;11.918;2023-11-18T00:57:36;9.85;;;6.05;;
39314;SDS011;28703;44.412;11.918;2023-11-18T01:00:06;9.30;;;6.95;;
39314;SDS011;28703;44.412;11.918;2023-11-18T01:02:34;10.43;;;5.78;;
39314;SDS011;28703;44.412;11.918;2023-11-18T01:05:00;9.77;;;6.50;;
39314;SDS011;28703;44.412;11.918;2023-11-18T01:07:26;8.63;;;5.88;;
39314;SDS011;28703;44.412;11.918;2023-11-18T01:09:52;11.77;;;6.13;;
39314;SDS011;28703;44.412;11.918;2023-11-18T01:12:18;9.35;;;5.97;;
39314;SDS011;28703;44.412;11.918;2023-11-18T01:14:44;10.63;;;6.43;;
39314;SDS011;28703;44.412;11.918;2023-11-18T01:17:09;10.95;;;7.22;;
39314;SDS011;28703;44.412;11.918;2023-11-18T01:19:35;11.38;;;6.45;;
39314;SDS011;28703;44.412;11.918;2023-11-18T01:22:01;6.70;;;5.38;;
39314;SDS011;28703;44.412;11.918;2023-11-18T01:24:31;6.68;;;4.70;;
39314;SDS011;28703;44.412;11.918;2023-11-18T01:26:58;6.85;;;4.80;;
39314;SDS011;28703;44.412;11.918;2023-11-18T01:29:24;6.13;;;4.47;;
39314;SDS011;28703;44.412;11.918;2023-11-18T01:31:51;5.93;;;4.40;;
39314;SDS011;28703;44.412;11.918;2023-11-18T01:34:18;7.40;;;4.57;;
39314;SDS011;28703;44.412;11.918;2023-11-18T01:36:47;9.63;;;4.88;;
39314;SDS011;28703;44.412;11.918;2023-11-18T01:39:15;5.30;;;4.05;;
39314;SDS011;28703;44.412;11.918;2023-11-18T01:41:43;6.57;;;4.13;;
39314;SDS011;28703;44.412;11.918;2023-11-18T01:44:09;5.75;;;4.43;;
39314;SDS011;28703;44.412;11.918;2023-11-18T01:46:35;4.30;;;3.70;;
39314;SDS011;28703;44.412;11.918;2023-11-18T01:49:02;4.53;;;3.63;;
39314;SDS011;28703;44.412;11.918;2023-11-18T01:51:29;8.15;;;4.00;;
39314;SDS011;28703;44.412;11.918;2023-11-18T01:53:56;6.35;;;4.07;;
39314;SDS011;28703;44.412;11.918;2023-11-18T01:56:25;4.95;;;3.95;;
39314;SDS011;28703;44.412;11.918;2023-11-18T01:58:52;5.45;;;4.35;;
39314;SDS011;28703;44.412;11.918;2023-11-18T02:01:18;8.10;;;4.05;;
39314;SDS011;28703;44.412;11.918;2023-11-18T02:03:45;9.18;;;4.22;;
39314;SDS011;28703;44.412;11.918;2023-11-18T02:06:12;7.97;;;3.75;;
39314;SDS011;28703;44.412;11.918;2023-11-18T02:08:39;5.28;;;3.90;;
39314;SDS011;28703;44.412;11.918;2023-11-18T02:11:14;5.97;;;3.53;;
39314;SDS011;28703;44.412;11.918;2023-11-18T02:13:47;6.55;;;4.20;;
39314;SDS011;28703;44.412;11.918;2023-11-18T02:16:17;5.40;;;4.20;;
39314;SDS011;28703;44.412;11.918;2023-11-18T02:18:45;9.40;;;4.95;;
39314;SDS011;28703;44.412;11.918;2023-11-18T02:21:12;8.40;;;4.82;;
39314;SDS011;28703;44.412;11.918;2023-11-18T02:23:40;5.45;;;4.43;;
39314;SDS011;28703;44.412;11.918;2023-11-18T02:26:08;5.22;;;4.47;;
39314;SDS011;28703;44.412;11.918;2023-11-18T02:28:34;6.47;;;4.15;;
39314;SDS011;28703;44.412;11.918;2023-11-18T02:31:03;5.72;;;4.28;;
39314;SDS011;28703;44.412;11.918;2023-11-18T02:33:35;6.65;;;4.72;;
39314;SDS011;28703;44.412;11.918;2023-11-18T02:36:09;6.10;;;4.22;;
39314;SDS011;28703;44.412;11.918;2023-11-18T02:38:43;4.90;;;3.83;;
39314;SDS011;28703;44.412;11.918;2023-11-18T02:41:12;12.82;;;6.15;;
39314;SDS011;28703;44.412;11.918;2023-11-18T02:43:40;7.93;;;4.72;;
39314;SDS011;28703;44.412;11.918;2023-11-18T02:46:07;11.75;;;4.80;;
39314;SDS011;28703;44.412;11.918;2023-11-18T02:48:34;10.20;;;4.85;;
39314;SDS011;28703;44.412;11.918;2023-11-18T02:51:03;7.55;;;4.68;;
39314;SDS011;28703;44.412;11.918;2023-11-18T02:53:29;7.82;;;4.80;;
39314;SDS011;28703;44.412;11.918;2023-11-18T02:55:55;7.22;;;4.97;;
39314;SDS011;28703;44.412;11.918;2023-11-18T02:58:30;13.63;;;6.70;;
39314;SDS011;28703;44.412;11.918;2023-11-18T03:00:56;11.35;;;6.55;;
39314;SDS011;28703;44.412;11.918;2023-11-18T03:03:25;12.75;;;5.72;;
39314;SDS011;28703;44.412;11.918;2023-11-18T03:05:52;8.57;;;5.15;;
39314;SDS011;28703;44.412;11.918;2023-11-18T03:08:18;6.32;;;4.15;;
39314;SDS011;28703;44.412;11.918;2023-11-18T03:10:44;9.40;;;4.38;;
39314;SDS011;28703;44.412;11.918;2023-11-18T03:13:10;4.47;;;3.90;;
39314;SDS011;28703;44.412;11.918;2023-11-18T03:15:37;9.52;;;4.28;;
39314;SDS011;28703;44.412;11.918;2023-11-18T03:18:04;5.95;;;3.60;;
39314;SDS011;28703;44.412;11.918;2023-11-18T03:20:31;4.10;;;3.45;;
39314;SDS011;28703;44.412;11.918;2023-11-18T03:22:59;7.65;;;3.42;;
39314;SDS011;28703;44.412;11.918;2023-11-18T03:25:28;4.72;;;3.28;;
39314;SDS011;28703;44.412;11.918;2023-11-18T03:27:54;6.80;;;3.38;;
39314;SDS011;28703;44.412;11.918;2023-11-18T03:30:20;4.03;;;3.13;;
39314;SDS011;28703;44.412;11.918;2023-11-18T03:32:46;3.70;;;3.40;;
39314;SDS011;28703;44.412;11.918;2023-11-18T03:35:12;5.65;;;3.50;;
39314;SDS011;28703;44.412;11.918;2023-11-18T03:37:38;4.15;;;3.15;;
39314;SDS011;28703;44.412;11.918;2023-11-18T03:40:07;7.05;;;3.22;;
39314;SDS011;28703;44.412;11.918;2023-11-18T03:42:33;6.18;;;3.30;;
39314;SDS011;28703;44.412;11.918;2023-11-18T03:45:00;3.60;;;3.20;;
39314;SDS011;28703;44.412;11.918;2023-11-18T03:47:26;6.47;;;4.18;;
39314;SDS011;28703;44.412;11.918;2023-11-18T03:49:52;5.32;;;3.20;;
39314;SDS011;28703;44.412;11.918;2023-11-18T03:52:19;5.75;;;3.55;;
39314;SDS011;28703;44.412;11.918;2023-11-18T03:54:45;5.28;;;3.33;;
39314;SDS011;28703;44.412;11.918;2023-11-18T03:57:11;7.13;;;3.30;;
39314;SDS011;28703;44.412;11.918;2023-11-18T03:59:40;3.80;;;3.13;;
39314;SDS011;28703;44.412;11.918;2023-11-18T04:02:07;3.72;;;2.60;;
39314;SDS011;28703;44.412;11.918;2023-11-18T04:04:34;6.15;;;2.65;;
39314;SDS011;28703;44.412;11.918;2023-11-18T04:07:00;3.55;;;2.40;;
39314;SDS011;28703;44.412;11.918;2023-11-18T04:09:26;4.78;;;2.95;;
39314;SDS011;28703;44.412;11.918;2023-11-18T04:11:52;3.55;;;2.85;;
39314;SDS011;28703;44.412;11.918;2023-11-18T04:14:18;4.25;;;2.80;;
39314;SDS011;28703;44.412;11.918;2023-11-18T04:16:45;3.03;;;2.72;;
39314;SDS011;28703;44.412;11.918;2023-11-18T04:19:11;5.47;;;3.50;;
39314;SDS011;28703;44.412;11.918;2023-11-18T04:21:37;8.50;;;4.53;;
39314;SDS011;28703;44.412;11.918;2023-11-18T04:24:03;9.30;;;4.55;;
39314;SDS011;28703;44.412;11.918;2023-11-18T04:26:30;4.68;;;3.85;;
39314;SDS011;28703;44.412;11.918;2023-11-18T04:28:57;4.28;;;3.85;;
39314;SDS011;28703;44.412;11.918;2023-11-18T04:31:23;7.88;;;4.25;;
39314;SDS011;28703;44.412;11.918;2023-11-18T04:33:49;8.85;;;4.07;;
39314;SDS011;28703;44.412;11.918;2023-11-18T04:36:16;5.47;;;4.30;;
39314;SDS011;28703;44.412;11.918;2023-11-18T04:38:44;6.05;;;3.92;;
39314;SDS011;28703;44.412;11.918;2023-11-18T04:41:10;4.63;;;3.67;;
39314;SDS011;28703;44.412;11.918;2023-11-18T04:43:36;5.93;;;3.35;;
39314;SDS011;28703;44.412;11.918;2023-11-18T04:46:05;6.00;;;3.97;;
39314;SDS011;28703;44.412;11.918;2023-11-18T04:48:31;5.07;;;3.72;;
39314;SDS011;28703;44.412;11.918;2023-11-18T04:50:58;4.47;;;3.05;;
39314;SDS011;28703;44.412;11.918;2023-11-18T04:53:24;10.07;;;3.42;;
39314;SDS011;28703;44.412;11.918;2023-11-18T04:55:50;4.28;;;3.70;;
39314;SDS011;28703;44.412;11.918;2023-11-18T04:58:16;4.63;;;3.53;;
39314;SDS011;28703;44.412;11.918;2023-11-18T05:00:42;3.63;;;3.17;;
39314;SDS011;28703;44.412;11.918;2023-11-18T05:03:08;4.13;;;3.45;;
39314;SDS011;28703;44.412;11.918;2023-11-18T05:05:37;7.03;;;3.30;;
39314;SDS011;28703;44.412;11.918;2023-11-18T05:08:06;6.22;;;3.40;;
39314;SDS011;28703;44.412;11.918;2023-11-18T05:10:33;5.32;;;3.20;;
39314;SDS011;28703;44.412;11.918;2023-11-18T05:13:03;4.50;;;3.50;;
39314;SDS011;28703;44.412;11.918;2023-11-18T05:15:29;4.07;;;3.47;;
39314;SDS011;28703;44.412;11.918;2023-11-18T05:17:56;6.55;;;3.80;;
39314;SDS011;28703;44.412;11.918;2023-11-18T05:20:22;6.65;;;3.20;;
39314;SDS011;28703;44.412;11.918;2023-11-18T05:22:48;5.40;;;3.80;;
39314;SDS011;28703;44.412;11.918;2023-11-18T05:25:14;4.25;;;3.22;;
39314;SDS011;28703;44.412;11.918;2023-11-18T05:27:39;7.03;;;2.97;;
39314;SDS011;28703;44.412;11.918;2023-11-18T05:30:09;5.72;;;3.28;;
39314;SDS011;28703;44.412;11.918;2023-11-18T05:32:36;3.65;;;3.30;;
39314;SDS011;28703;44.412;11.918;2023-11-18T05:35:03;3.38;;;3.08;;
39314;SDS011;28703;44.412;11.918;2023-11-18T05:37:30;4.22;;;3.55;;
39314;SDS011;28703;44.412;11.918;2023-11-18T05:40:03;4.10;;;3.00;;
39314;SDS011;28703;44.412;11.918;2023-11-18T05:42:33;3.65;;;3.35;;
39314;SDS011;28703;44.412;11.918;2023-11-18T05:45:05;6.40;;;4.63;;
39314;SDS011;28703;44.412;11.918;2023-11-18T05:47:32;3.72;;;3.35;;
39314;SDS011;28703;44.412;11.918;2023-11-18T05:50:00;5.80;;;3.25;;
39314;SDS011;28703;44.412;11.918;2023-11-18T05:52:25;4.95;;;2.95;;
39314;SDS011;28703;44.412;11.918;2023-11-18T05:54:52;7.05;;;2.97;;
39314;SDS011;28703;44.412;11.918;2023-11-18T05:57:18;7.10;;;3.50;;
39314;SDS011;28703;44.412;11.918;2023-11-18T05:59:44;6.35;;;2.97;;
39314;SDS011;28703;44.412;11.918;2023-11-18T06:02:13;4.03;;;3.20;;
39314;SDS011;28703;44.412;11.918;2023-11-18T06:04:46;4.75;;;3.10;;
39314;SDS011;28703;44.412;11.918;2023-11-18T06:07:12;6.38;;;3.17;;
39314;SDS011;28703;44.412;11.918;2023-11-18T06:09:39;11.23;;;4.63;;
39314;SDS011;28703;44.412;11.918;2023-11-18T06:12:07;9.27;;;3.55;;
39314;SDS011;28703;44.412;11.918;2023-11-18T06:14:38;5.05;;;4.20;;
39314;SDS011;28703;44.412;11.918;2023-11-18T06:17:04;9.38;;;4.00;;
39314;SDS011;28703;44.412;11.918;2023-11-18T06:19:32;6.63;;;3.95;;
39314;SDS011;28703;44.412;11.918;2023-11-18T06:21:59;10.32;;;3.80;;
39314;SDS011;28703;44.412;11.918;2023-11-18T06:24:24;4.57;;;4.15;;
39314;SDS011;28703;44.412;11.918;2023-11-18T06:26:50;8.32;;;4.50;;
39314;SDS011;28703;44.412;11.918;2023-11-18T06:29:17;4.53;;;3.85;;
39314;SDS011;28703;44.412;11.918;2023-11-18T06:31:43;5.90;;;3.78;;
39314;SDS011;28703;44.412;11.918;2023-11-18T06:34:09;4.85;;;3.63;;
39314;SDS011;28703;44.412;11.918;2023-11-18T06:36:35;4.78;;;4.10;;
39314;SDS011;28703;44.412;11.918;2023-11-18T06:39:01;3.72;;;3.42;;
39314;SDS011;28703;44.412;11.918;2023-11-18T06:41:26;6.40;;;3.67;;
39314;SDS011;28703;44.412;11.918;2023-11-18T06:43:59;5.97;;;3.50;;
39314;SDS011;28703;44.412;11.918;2023-11-18T06:46:34;8.95;;;3.80;;
39314;SDS011;28703;44.412;11.918;2023-11-18T06:49:02;4.47;;;3.70;;
39314;SDS011;28703;44.412;11.918;2023-11-18T06:51:40;18.90;;;14.23;;
39314;SDS011;28703;44.412;11.918;2023-11-18T06:54:06;12.52;;;7.65;;
39314;SDS011;28703;44.412;11.918;2023-11-18T06:56:36;8.65;;;5.40;;
39314;SDS011;28703;44.412;11.918;2023-11-18T06:59:08;9.48;;;4.72;;
39314;SDS011;28703;44.412;11.918;2023-11-18T07:01:40;8.30;;;5.68;;
39314;SDS011;28703;44.412;11.918;2023-11-18T07:04:08;15.90;;;9.65;;
39314;SDS011;28703;44.412;11.918;2023-11-18T07:06:35;14.60;;;6.47;;
39314;SDS011;28703;44.412;11.918;2023-11-18T07:09:08;7.22;;;5.07;;
39314;SDS011;28703;44.412;11.918;2023-11-18T07:11:39;7.75;;;5.43;;
39314;SDS011;28703;44.412;11.918;2023-11-18T07:14:06;8.68;;;4.95;;
39314;SDS011;28703;44.412;11.918;2023-11-18T07:16:34;16.42;;;7.18;;
39314;SDS011;28703;44.412;11.918;2023-11-18T07:19:00;10.40;;;7.53;;
39314;SDS011;28703;44.412;11.918;2023-11-18T07:21:28;9.45;;;7.22;;
39314;SDS011;28703;44.412;11.918;2023-11-18T07:23:55;11.48;;;7.35;;
39314;SDS011;28703;44.412;11.918;2023-11-18T07:26:21;16.90;;;8.00;;
39314;SDS011;28703;44.412;11.918;2023-11-18T07:28:49;10.77;;;5.28;;
39314;SDS011;28703;44.412;11.918;2023-11-18T07:31:15;14.85;;;5.10;;
39314;SDS011;28703;44.412;11.918;2023-11-18T07:33:44;9.80;;;4.90;;
39314;SDS011;28703;44.412;11.918;2023-11-18T07:36:15;24.60;;;5.28;;
39314;SDS011;28703;44.412;11.918;2023-11-18T07:38:41;6.70;;;3.88;;
39314;SDS011;28703;44.412;11.918;2023-11-18T07:41:07;7.95;;;4.15;;
39314;SDS011;28703;44.412;11.918;2023-11-18T07:43:49;7.60;;;3.80;;
39314;SDS011;28703;44.412;11.918;2023-11-18T07:46:16;7.55;;;4.00;;
39314;SDS011;28703;44.412;11.918;2023-11-18T07:48:42;10.88;;;3.75;;
39314;SDS011;28703;44.412;11.918;2023-11-18T07:51:07;7.07;;;4.25;;
39314;SDS011;28703;44.412;11.918;2023-11-18T07:53:33;9.60;;;5.00;;
39314;SDS011;28703;44.412;11.918;2023-11-18T07:56:01;4.28;;;3.80;;
39314;SDS011;28703;44.412;11.918;2023-11-18T07:58:27;7.28;;;4.05;;
39314;SDS011;28703;44.412;11.918;2023-11-18T08:00:53;6.93;;;4.97;;
39314;SDS011;28703;44.412;11.918;2023-11-18T08:03:20;9.23;;;4.82;;
39314;SDS011;28703;44.412;11.918;2023-11-18T08:05:46;5.28;;;4.43;;
39314;SDS011;28703;44.412;11.918;2023-11-18T08:08:14;8.00;;;4.93;;
39314;SDS011;28703;44.412;11.918;2023-11-18T08:10:43;9.18;;;4.80;;
39314;SDS011;28703;44.412;11.918;2023-11-18T08:13:10;12.40;;;5.25;;
39314;SDS011;28703;44.412;11.918;2023-11-18T08:15:40;10.25;;;4.63;;
39314;SDS011;28703;44.412;11.918;2023-11-18T08:18:07;6.53;;;5.05;;
39314;SDS011;28703;44.412;11.918;2023-11-18T08:20:35;5.90;;;4.45;;
39314;SDS011;28703;44.412;11.918;2023-11-18T08:23:01;7.13;;;4.25;;
39314;SDS011;28703;44.412;11.918;2023-11-18T08:25:27;7.93;;;4.45;;
39314;SDS011;28703;44.412;11.918;2023-11-18T08:27:53;4.90;;;4.40;;
39314;SDS011;28703;44.412;11.918;2023-11-18T08:30:19;6.00;;;4.57;;
39314;SDS011;28703;44.412;11.918;2023-11-18T08:32:46;6.95;;;4.60;;
39314;SDS011;28703;44.412;11.918;2023-11-18T08:35:12;4.82;;;3.78;;
39314;SDS011;28703;44.412;11.918;2023-11-18T08:37:39;5.25;;;4.50;;
39314;SDS011;28703;44.412;11.918;2023-11-18T08:40:07;4.78;;;3.80;;
39314;SDS011;28703;44.412;11.918;2023-11-18T08:42:43;8.23;;;3.85;;
39314;SDS011;28703;44.412;11.918;2023-11-18T08:47:48;6.47;;;4.00;;
39314;SDS011;28703;44.412;11.918;2023-11-18T08:50:15;5.40;;;3.38;;
39314;SDS011;28703;44.412;11.918;2023-11-18T08:52:42;4.40;;;3.35;;
39314;SDS011;28703;44.412;11.918;2023-11-18T08:55:11;3.85;;;3.15;;
39314;SDS011;28703;44.412;11.918;2023-11-18T08:57:48;3.78;;;2.70;;
39314;SDS011;28703;44.412;11.918;2023-11-18T09:00:26;2.33;;;2.10;;
39314;SDS011;28703;44.412;11.918;2023-11-18T09:03:31;3.42;;;1.88;;
39314;SDS011;28703;44.412;11.918;2023-11-18T09:06:01;4.05;;;1.73;;
39314;SDS011;28703;44.412;11.918;2023-11-18T09:08:33;2.17;;;1.98;;
39314;SDS011;28703;44.412;11.918;2023-11-18T09:11:00;4.22;;;2.08;;
39314;SDS011;28703;44.412;11.918;2023-11-18T09:13:27;3.72;;;1.90;;
39314;SDS011;28703;44.412;11.918;2023-11-18T09:15:57;2.35;;;2.03;;
39314;SDS011;28703;44.412;11.918;2023-11-18T09:18:28;3.53;;;1.90;;
39314;SDS011;28703;44.412;11.918;2023-11-18T09:20:55;2.15;;;1.80;;
39314;SDS011;28703;44.412;11.918;2023-11-18T09:23:26;3.65;;;1.50;;
39314;SDS011;28703;44.412;11.918;2023-11-18T09:25:52;4.60;;;1.58;;
39314;SDS011;28703;44.412;11.918;2023-11-18T09:28:19;2.38;;;1.75;;
39314;SDS011;28703;44.412;11.918;2023-11-18T09:30:46;2.35;;;1.92;;
39314;SDS011;28703;44.412;11.918;2023-11-18T09:33:16;1.88;;;1.48;;
39314;SDS011;28703;44.412;11.918;2023-11-18T09:35:53;4.38;;;1.70;;
39314;SDS011;28703;44.412;11.918;2023-11-18T09:38:27;1.88;;;1.50;;
39314;SDS011;28703;44.412;11.918;2023-11-18T09:40:58;3.08;;;1.42;;
39314;SDS011;28703;44.412;11.918;2023-11-18T09:43:31;3.53;;;2.30;;
39314;SDS011;28703;44.412;11.918;2023-11-18T09:46:03;1.60;;;1.20;;
39314;SDS011;28703;44.412;11.918;2023-11-18T09:48:40;1.88;;;1.25;;
39314;SDS011;28703;44.412;11.918;2023-11-18T09:51:28;3.72;;;1.70;;
39314;SDS011;28703;44.412;11.918;2023-11-18T09:54:09;3.72;;;1.73;;
39314;SDS011;28703;44.412;11.918;2023-11-18T10:02:24;1.35;;;1.13;;
39314;SDS011;28703;44.412;11.918;2023-11-18T10:04:50;1.58;;;1.20;;
39314;SDS011;28703;44.412;11.918;2023-11-18T10:09:54;4.57;;;1.65;;
39314;SDS011;28703;44.412;11.918;2023-11-18T10:12:22;1.00;;;0.85;;
39314;SDS011;28703;44.412;11.918;2023-11-18T10:14:49;4.47;;;1.15;;
39314;SDS011;28703;44.412;11.918;2023-11-18T10:17:18;1.58;;;1.48;;
39314;SDS011;28703;44.412;11.918;2023-11-18T10:19:50;1.40;;;1.27;;
39314;SDS011;28703;44.412;11.918;2023-11-18T10:22:21;3.58;;;1.45;;
39314;SDS011;28703;44.412;11.918;2023-11-18T10:24:49;1.77;;;1.17;;
39314;SDS011;28703;44.412;11.918;2023-11-18T10:27:15;0.90;;;0.85;;
39314;SDS011;28703;44.412;11.918;2023-11-18T10:29:40;4.85;;;1.05;;
39314;SDS011;28703;44.412;11.918;2023-11-18T10:32:07;1.80;;;1.40;;
39314;SDS011;28703;44.412;11.918;2023-11-18T10:34:34;1.85;;;1.02;;
39314;SDS011;28703;44.412;11.918;2023-11-18T10:37:01;2.38;;;1.13;;
39314;SDS011;28703;44.412;11.918;2023-11-18T10:39:31;3.75;;;1.45;;
39314;SDS011;28703;44.412;11.918;2023-11-18T10:42:00;1.80;;;1.00;;
39314;SDS011;28703;44.412;11.918;2023-11-18T10:44:26;3.65;;;1.20;;
39314;SDS011;28703;44.412;11.918;2023-11-18T10:46:54;1.30;;;1.08;;
39314;SDS011;28703;44.412;11.918;2023-11-18T10:49:27;3.13;;;1.08;;
39314;SDS011;28703;44.412;11.918;2023-11-18T10:51:55;3.75;;;1.42;;
39314;SDS011;28703;44.412;11.918;2023-11-18T10:54:24;1.95;;;1.20;;
39314;SDS011;28703;44.412;11.918;2023-11-18T10:56:52;1.85;;;1.17;;
39314;SDS011;28703;44.412;11.918;2023-11-18T10:59:21;1.25;;;1.10;;
39314;SDS011;28703;44.412;11.918;2023-11-18T11:01:48;3.28;;;1.02;;
39314;SDS011;28703;44.412;11.918;2023-11-18T11:04:15;4.03;;;1.20;;
39314;SDS011;28703;44.412;11.918;2023-11-18T11:06:48;2.63;;;0.85;;
39314;SDS011;28703;44.412;11.918;2023-11-18T11:09:18;2.75;;;1.15;;
39314;SDS011;28703;44.412;11.918;2023-11-18T11:11:52;2.75;;;0.70;;
39314;SDS011;28703;44.412;11.918;2023-11-18T11:14:33;1.02;;;0.80;;
39314;SDS011;28703;44.412;11.918;2023-11-18T11:17:16;1.73;;;0.82;;
39314;SDS011;28703;44.412;11.918;2023-11-18T11:20:16;2.95;;;1.00;;
39314;SDS011;28703;44.412;11.918;2023-11-18T11:31:32;1.40;;;1.30;;
39314;SDS011;28703;44.412;11.918;2023-11-18T11:34:04;5.80;;;3.58;;
39314;SDS011;28703;44.412;11.918;2023-11-18T11:36:37;5.38;;;1.60;;
39314;SDS011;28703;44.412;11.918;2023-11-18T11:39:07;3.83;;;1.33;;
39314;SDS011;28703;44.412;11.918;2023-11-18T11:41:46;26.35;;;10.30;;
39314;SDS011;28703;44.412;11.918;2023-11-18T11:44:16;6.38;;;3.63;;
39314;SDS011;28703;44.412;11.918;2023-11-18T11:46:45;1.77;;;1.15;;
39314;SDS011;28703;44.412;11.918;2023-11-18T11:49:19;1.35;;;1.25;;
39314;SDS011;28703;44.412;11.918;2023-11-18T11:51:54;1.30;;;1.20;;
39314;SDS011;28703;44.412;11.918;2023-11-18T11:54:48;5.97;;;1.60;;
39314;SDS011;28703;44.412;11.918;2023-11-18T11:57:27;2.88;;;1.58;;
39314;SDS011;28703;44.412;11.918;2023-11-18T11:59:54;2.45;;;1.67;;
39314;SDS011;28703;44.412;11.918;2023-11-18T12:02:25;4.32;;;1.73;;
39314;SDS011;28703;44.412;11.918;2023-11-18T12:04:57;2.97;;;2.53;;
39314;SDS011;28703;44.412;11.918;2023-11-18T12:07:27;3.22;;;1.80;;
39314;SDS011;28703;44.412;11.918;2023-11-18T12:10:00;3.47;;;2.38;;
39314;SDS011;28703;44.412;11.918;2023-11-18T12:12:27;2.35;;;2.20;;
39314;SDS011;28703;44.412;11.918;2023-11-18T12:14:57;2.50;;;2.05;;
39314;SDS011;28703;44.412;11.918;2023-11-18T12:23:22;5.63;;;1.70;;
39314;SDS011;28703;44.412;11.918;2023-11-18T12:25:50;3.22;;;1.92;;
39314;SDS011;28703;44.412;11.918;2023-11-18T12:28:26;4.38;;;2.13;;
39314;SDS011;28703;44.412;11.918;2023-11-18T12:30:56;5.75;;;1.90;;
39314;SDS011;28703;44.412;11.918;2023-11-18T12:36:32;1.40;;;1.30;;
39314;SDS011;28703;44.412;11.918;2023-11-18T12:42:06;6.88;;;1.80;;
39314;SDS011;28703;44.412;11.918;2023-11-18T12:47:49;3.35;;;2.00;;
39314;SDS011;28703;44.412;11.918;2023-11-18T12:50:19;3.65;;;1.90;;
39314;SDS011;28703;44.412;11.918;2023-11-18T12:52:52;6.30;;;1.80;;
39314;SDS011;28703;44.412;11.918;2023-11-18T12:55:19;2.38;;;1.45;;
39314;SDS011;28703;44.412;11.918;2023-11-18T12:57:46;2.08;;;1.33;;
39314;SDS011;28703;44.412;11.918;2023-11-18T13:00:13;1.45;;;1.35;;
39314;SDS011;28703;44.412;11.918;2023-11-18T13:02:51;1.75;;;1.35;;
39314;SDS011;28703;44.412;11.918;2023-11-18T13:05:19;5.65;;;1.30;;
39314;SDS011;28703;44.412;11.918;2023-11-18T13:07:45;2.85;;;1.58;;
39314;SDS011;28703;44.412;11.918;2023-11-18T13:10:12;3.63;;;1.50;;
39314;SDS011;28703;44.412;11.918;2023-11-18T13:12:41;1.70;;;1.55;;
39314;SDS011;28703;44.412;11.918;2023-11-18T13:15:08;2.50;;;1.63;;
39314;SDS011;28703;44.412;11.918;2023-11-18T13:17:34;2.53;;;1.85;;
39314;SDS011;28703;44.412;11.918;2023-11-18T13:20:12;2.20;;;1.50;;
39314;SDS011;28703;44.412;11.918;2023-11-18T13:22:39;3.17;;;1.30;;
39314;SDS011;28703;44.412;11.918;2023-11-18T13:25:07;1.70;;;1.50;;
39314;SDS011;28703;44.412;11.918;2023-11-18T13:27:34;2.42;;;2.08;;
39314;SDS011;28703;44.412;11.918;2023-11-18T13:30:01;2.05;;;1.35;;
39314;SDS011;28703;44.412;11.918;2023-11-18T13:32:28;3.05;;;2.40;;
39314;SDS011;28703;44.412;11.918;2023-11-18T13:34:54;2.92;;;1.90;;
39314;SDS011;28703;44.412;11.918;2023-11-18T13:37:20;3.03;;;2.35;;
39314;SDS011;28703;44.412;11.918;2023-11-18T13:39:56;4.63;;;1.58;;
39314;SDS011;28703;44.412;11.918;2023-11-18T13:42:26;3.65;;;2.50;;
39314;SDS011;28703;44.412;11.918;2023-11-18T13:45:00;4.15;;;2.00;;
39314;SDS011;28703;44.412;11.918;2023-11-18T13:47:36;2.15;;;1.55;;
39314;SDS011;28703;44.412;11.918;2023-11-18T13:50:06;2.15;;;1.85;;
39314;SDS011;28703;44.412;11.918;2023-11-18T13:52:33;1.20;;;1.02;;
39314;SDS011;28703;44.412;11.918;2023-11-18T13:54:59;5.07;;;2.33;;
39314;SDS011;28703;44.412;11.918;2023-11-18T13:57:25;2.58;;;1.95;;
39314;SDS011;28703;44.412;11.918;2023-11-18T13:59:52;4.60;;;2.55;;
39314;SDS011;28703;44.412;11.918;2023-11-18T14:02:19;8.65;;;4.43;;
39314;SDS011;28703;44.412;11.918;2023-11-18T14:04:46;10.82;;;5.82;;
39314;SDS011;28703;44.412;11.918;2023-11-18T14:07:16;5.43;;;2.53;;
39314;SDS011;28703;44.412;11.918;2023-11-18T14:09:43;2.45;;;1.65;;
39314;SDS011;28703;44.412;11.918;2023-11-18T14:12:11;2.30;;;2.10;;
39314;SDS011;28703;44.412;11.918;2023-11-18T14:14:39;4.43;;;2.40;;
39314;SDS011;28703;44.412;11.918;2023-11-18T14:17:05;1.42;;;1.27;;
39314;SDS011;28703;44.412;11.918;2023-11-18T14:19:32;1.27;;;1.10;;
39314;SDS011;28703;44.412;11.918;2023-11-18T14:22:01;3.13;;;1.60;;
39314;SDS011;28703;44.412;11.918;2023-11-18T14:24:34;2.20;;;1.20;;
39314;SDS011;28703;44.412;11.918;2023-11-18T14:27:00;2.25;;;1.38;;
39314;SDS011;28703;44.412;11.918;2023-11-18T14:29:26;3.95;;;1.35;;
39314;SDS011;28703;44.412;11.918;2023-11-18T14:31:55;1.40;;;1.20;;
39314;SDS011;28703;44.412;11.918;2023-11-18T14:34:21;1.98;;;1.20;;
39314;SDS011;28703;44.412;11.918;2023-11-18T14:36:46;1.77;;;1.23;;
39314;SDS011;28703;44.412;11.918;2023-11-18T14:39:13;2.17;;;1.15;;
39314;SDS011;28703;44.412;11.918;2023-11-18T14:41:43;3.03;;;1.10;;
39314;SDS011;28703;44.412;11.918;2023-11-18T14:44:10;1.73;;;1.60;;
39314;SDS011;28703;44.412;11.918;2023-11-18T14:46:36;3.63;;;1.27;;
39314;SDS011;28703;44.412;11.918;2023-11-18T14:49:10;1.55;;;1.45;;
39314;SDS011;28703;44.412;11.918;2023-11-18T14:51:36;3.60;;;1.80;;
39314;SDS011;28703;44.412;11.918;2023-11-18T14:54:02;2.92;;;1.55;;
39314;SDS011;28703;44.412;11.918;2023-11-18T14:56:28;2.03;;;1.33;;
39314;SDS011;28703;44.412;11.918;2023-11-18T14:58:54;1.90;;;1.60;;
39314;SDS011;28703;44.412;11.918;2023-11-18T15:01:20;4.55;;;1.50;;
39314;SDS011;28703;44.412;11.918;2023-11-18T15:03:46;6.60;;;2.40;;
39314;SDS011;28703;44.412;11.918;2023-11-18T15:06:12;1.65;;;1.55;;
39314;SDS011;28703;44.412;11.918;2023-11-18T15:08:38;6.97;;;1.98;;
39314;SDS011;28703;44.412;11.918;2023-11-18T15:11:06;3.72;;;2.38;;
39314;SDS011;28703;44.412;11.918;2023-11-18T15:13:32;4.20;;;1.95;;
39314;SDS011;28703;44.412;11.918;2023-11-18T15:15:58;3.92;;;2.30;;